Weather at Holly Point Airport

Public forecast

Using degrees Fahrenheit for public forecast. Weather courtesy of forecast.io.

Closest aviation weather report (METAR) to Holly Point Airport

Closest report is Newport News Williamsburg International Airport, 17.2 nm (31.8 km) SSW. Retrieved 2020/09/29 16:54 UTC (29 minutes ago):

KPHF 291654Z 17011KT 9SM -RA BKN048 BKN055 OVC075 26/21 A2984 RMK AO2 RAB36 SLP103 P0001 T02560211

Closest aviation forecast (TAF) to Holly Point Airport

Closest forecast is Newport News Williamsburg International Airport, 17.2 nm (31.8 km) SSW. Retrieved 2020/09/29 12:54 UTC (4 hours ago):

TAF KPHF 291151Z 2912/3012 19006KT P6SM SCT025 BKN060 FM291300 17009KT 6SM -SHRA BKN025 FM292100 17012G19KT 6SM -SHRA OVC025 FM300100 20011KT 3SM +SHRA OVC009 FM300500 31012KT 4SM SHRA OVC007 FM300900 30007KT 6SM -SHRA OVC010